createdAt,value
2018-02-23T00:02:30.390Z,-0.60
2018-02-23T00:05:05.045Z,-0.60
2018-02-23T00:07:56.352Z,-0.70
2018-02-23T00:10:38.143Z,-0.70
2018-02-23T00:13:13.235Z,-0.70
2018-02-23T00:15:54.258Z,-0.70
2018-02-23T00:18:38.652Z,-0.70
2018-02-23T00:21:12.312Z,-0.80
2018-02-23T00:23:50.174Z,-0.80
2018-02-23T00:26:32.722Z,-0.80
2018-02-23T00:29:16.337Z,-0.80
2018-02-23T00:31:51.274Z,-0.80
2018-02-23T00:34:34.257Z,-0.80
2018-02-23T00:37:08.194Z,-0.80
2018-02-23T00:39:47.897Z,-0.80
2018-02-23T00:42:28.197Z,-0.80
2018-02-23T00:45:11.148Z,-0.80
2018-02-23T00:47:55.417Z,-0.90
2018-02-23T00:50:30.573Z,-0.90
2018-02-23T00:53:09.155Z,-0.80
2018-02-23T00:55:48.115Z,-0.80
2018-02-23T00:58:25.469Z,-0.80
2018-02-23T01:01:06.317Z,-0.80
2018-02-23T01:03:44.716Z,-0.80
2018-02-23T01:06:25.441Z,-0.90
2018-02-23T01:09:04.550Z,-0.80
2018-02-23T01:11:42.689Z,-0.90
2018-02-23T01:14:20.401Z,-0.90
2018-02-23T01:16:58.222Z,-0.90
2018-02-23T01:19:38.009Z,-0.90
2018-02-23T01:22:11.856Z,-0.90
2018-02-23T01:24:53.346Z,-0.90
2018-02-23T01:27:32.729Z,-0.90
2018-02-23T01:30:12.382Z,-0.90
2018-02-23T01:32:57.783Z,-0.90
2018-02-23T01:35:31.843Z,-0.90
2018-02-23T01:38:10.636Z,-0.90
2018-02-23T01:40:50.416Z,-0.90
2018-02-23T01:43:33.533Z,-0.90
2018-02-23T01:46:16.132Z,-0.90
2018-02-23T01:48:49.729Z,-0.90
2018-02-23T01:51:29.621Z,-0.90
2018-02-23T01:54:09.499Z,-0.90
2018-02-23T01:56:50.243Z,-0.90
2018-02-23T01:59:30.119Z,-0.90
2018-02-23T02:02:11.674Z,-0.90
2018-02-23T02:04:53.566Z,-1.00
2018-02-23T02:07:36.068Z,-0.90
2018-02-23T02:10:17.959Z,-1.00
2018-02-23T02:13:04.731Z,-1.00
2018-02-23T02:15:47.021Z,-1.00
2018-02-23T02:18:28.571Z,-1.00
2018-02-23T02:21:11.945Z,-1.00
2018-02-23T02:23:52.670Z,-1.00
2018-02-23T02:26:34.071Z,-1.00
2018-02-23T02:29:13.182Z,-0.90
2018-02-23T02:31:52.373Z,-0.90
2018-02-23T02:34:31.572Z,-0.80
2018-02-23T02:37:10.734Z,-0.80
2018-02-23T02:39:49.128Z,-0.80
2018-02-23T02:42:30.178Z,-0.80
2018-02-23T02:45:11.578Z,-0.80
2018-02-23T02:47:53.162Z,-0.70
2018-02-23T02:50:35.707Z,-0.70
2018-02-23T02:53:15.906Z,-0.70
2018-02-23T02:55:58.844Z,-0.70
2018-02-23T02:58:40.084Z,-0.60
2018-02-23T03:01:20.317Z,-0.60
2018-02-23T03:04:02.905Z,-0.60
2018-02-23T03:06:42.254Z,-0.50
2018-02-23T03:09:25.536Z,-0.50
2018-02-23T03:12:04.712Z,-0.50
2018-02-23T03:14:45.326Z,-0.40
2018-02-23T03:17:25.612Z,-0.40
2018-02-23T03:20:06.815Z,-0.40
2018-02-23T03:22:46.814Z,-0.40
2018-02-23T03:25:25.116Z,-0.40
2018-02-23T03:28:07.688Z,-0.40
2018-02-23T03:30:52.080Z,-0.50
2018-02-23T03:33:36.365Z,-0.50
2018-02-23T03:36:18.183Z,-0.50
2018-02-23T03:38:58.903Z,-0.50
2018-02-23T03:41:41.248Z,-0.50
2018-02-23T03:44:23.595Z,-0.60
2018-02-23T03:47:03.057Z,-0.70
2018-02-23T03:49:48.626Z,-0.80
2018-02-23T03:52:30.705Z,-0.80
2018-02-23T03:55:12.412Z,-0.70
2018-02-23T03:57:54.891Z,-0.80
2018-02-23T04:00:39.303Z,-0.80
2018-02-23T04:03:18.503Z,-0.80
2018-02-23T04:06:01.179Z,-0.90
2018-02-23T04:08:42.281Z,-0.90
2018-02-23T04:11:23.321Z,-1.00
2018-02-23T04:14:07.809Z,-1.00
2018-02-23T04:16:53.221Z,-1.00
2018-02-23T04:19:35.915Z,-1.10
2018-02-23T04:22:13.530Z,-1.20
2018-02-23T04:24:52.633Z,-1.20
2018-02-23T04:27:27.331Z,-1.20
2018-02-23T04:30:10.434Z,-1.20
2018-02-23T04:32:49.209Z,-1.20
2018-02-23T04:35:31.460Z,-1.30
2018-02-23T04:38:10.338Z,-1.30
2018-02-23T04:40:54.355Z,-1.30
2018-02-23T04:43:37.460Z,-1.40
2018-02-23T04:46:15.434Z,-1.30
2018-02-23T04:48:56.647Z,-1.40
2018-02-23T04:51:36.535Z,-1.40
2018-02-23T04:54:17.188Z,-1.40
2018-02-23T04:56:59.042Z,-1.40
2018-02-23T04:59:39.091Z,-1.40
2018-02-23T05:02:19.342Z,-1.40
2018-02-23T05:04:59.688Z,-1.50
2018-02-23T05:07:40.591Z,-1.50
2018-02-23T05:10:17.875Z,-1.50
2018-02-23T05:12:55.629Z,-1.50
2018-02-23T05:15:36.710Z,-1.50
2018-02-23T05:18:20.924Z,-1.50
2018-02-23T05:21:03.522Z,-1.60
2018-02-23T05:23:45.674Z,-1.50
2018-02-23T05:26:26.055Z,-1.50
2018-02-23T05:29:04.948Z,-1.50
2018-02-23T05:31:44.635Z,-1.50
2018-02-23T05:34:26.102Z,-1.50
2018-02-23T05:37:07.876Z,-1.50
2018-02-23T05:39:50.602Z,-1.60
2018-02-23T05:42:32.300Z,-1.60
2018-02-23T05:45:15.255Z,-1.60
2018-02-23T05:47:57.146Z,-1.60
2018-02-23T05:50:37.799Z,-1.60
2018-02-23T05:53:18.617Z,-1.60
2018-02-23T05:56:01.637Z,-1.60
2018-02-23T05:58:47.238Z,-1.60
2018-02-23T06:01:21.116Z,-1.60
2018-02-23T06:04:00.951Z,-1.60
2018-02-23T06:06:45.501Z,-1.60
2018-02-23T06:09:19.522Z,-1.30
2018-02-23T06:11:57.887Z,-1.40
2018-02-23T06:14:37.026Z,-1.40
2018-02-23T06:17:21.149Z,-1.50
2018-02-23T06:20:01.109Z,-1.50
2018-02-23T06:22:35.124Z,-1.50
2018-02-23T06:25:15.925Z,-1.60
2018-02-23T06:27:54.468Z,-1.60
2018-02-23T06:30:34.633Z,-1.70
2018-02-23T06:36:17.799Z,-1.70
2018-02-23T06:38:58.055Z,-1.70
2018-02-23T06:41:34.302Z,-1.70
2018-02-23T06:44:19.919Z,-1.70
2018-02-23T06:47:02.956Z,-1.70
2018-02-23T06:49:43.959Z,-1.70
2018-02-23T06:52:23.249Z,-1.60
2018-02-23T06:55:03.452Z,-1.60
2018-02-23T06:57:39.917Z,-1.60
2018-02-23T07:00:26.830Z,-1.60
2018-02-23T07:03:04.889Z,-1.70
2018-02-23T07:05:44.120Z,-1.60
2018-02-23T07:08:21.426Z,-1.50
2018-02-23T07:11:03.713Z,-1.50
2018-02-23T07:13:43.913Z,-1.50
2018-02-23T07:16:18.430Z,-1.40
2018-02-23T07:18:54.898Z,-1.50
2018-02-23T07:21:39.724Z,-1.40
2018-02-23T07:24:19.958Z,-1.40
2018-02-23T07:27:01.929Z,-1.40
2018-02-23T07:29:42.609Z,-1.30
2018-02-23T07:32:25.297Z,-1.20
2018-02-23T07:35:03.939Z,-1.20
2018-02-23T07:37:46.089Z,-1.10
2018-02-23T07:40:27.235Z,-1.10
2018-02-23T07:43:09.277Z,-1.00
2018-02-23T07:45:50.441Z,-0.90
2018-02-23T07:48:30.832Z,-0.90
2018-02-23T07:51:07.059Z,-0.80
2018-02-23T07:53:41.210Z,-0.80
2018-02-23T07:56:22.427Z,-0.80
2018-02-23T07:58:59.878Z,-0.70
2018-02-23T08:01:43.426Z,-0.60
2018-02-23T08:04:22.041Z,-0.50
2018-02-23T08:07:05.613Z,-0.40
2018-02-23T08:09:48.286Z,-0.40
2018-02-23T08:12:26.047Z,-0.10
2018-02-23T08:15:05.815Z,-0.20
2018-02-23T08:17:47.123Z,-0.20
2018-02-23T08:20:28.060Z,0.10
2018-02-23T08:23:10.864Z,0.00
2018-02-23T08:25:44.185Z,0.10
2018-02-23T08:28:24.525Z,0.20
2018-02-23T08:31:04.266Z,0.40
2018-02-23T08:33:43.854Z,0.60
2018-02-23T08:36:24.599Z,0.80
2018-02-23T08:39:08.518Z,1.20
2018-02-23T08:41:51.026Z,1.30
2018-02-23T08:44:33.348Z,1.30
2018-02-23T08:47:16.633Z,1.30
2018-02-23T08:49:56.350Z,1.60
2018-02-23T08:52:36.924Z,2.00
2018-02-23T08:55:18.802Z,2.50
2018-02-23T08:58:00.763Z,2.50
2018-02-23T09:00:52.700Z,3.40
2018-02-23T09:03:32.300Z,4.00
2018-02-23T09:06:14.235Z,4.50
2018-02-23T09:08:49.385Z,4.90
2018-02-23T09:11:22.198Z,4.10
2018-02-23T09:13:58.609Z,5.30
2018-02-23T09:16:32.518Z,5.90
2018-02-23T09:19:10.481Z,5.30
2018-02-23T09:21:49.271Z,5.30
2018-02-23T09:24:28.713Z,6.00
2018-02-23T09:27:06.096Z,5.90
2018-02-23T09:29:44.565Z,5.40
2018-02-23T09:32:27.368Z,5.20
2018-02-23T09:35:07.558Z,5.50
2018-02-23T09:37:43.482Z,5.80
2018-02-23T09:40:23.321Z,5.70
2018-02-23T09:42:56.691Z,5.90
2018-02-23T09:45:35.797Z,6.20
2018-02-23T09:48:15.322Z,7.00
2018-02-23T09:50:57.939Z,5.70
2018-02-23T09:53:38.160Z,5.60
2018-02-23T09:56:16.591Z,5.80
2018-02-23T09:58:57.793Z,6.60
2018-02-23T10:01:39.018Z,6.60
2018-02-23T10:04:20.909Z,7.30
2018-02-23T10:07:04.476Z,7.00
2018-02-23T10:09:47.848Z,7.00
2018-02-23T10:12:28.081Z,6.90
2018-02-23T10:15:08.649Z,6.90
2018-02-23T10:17:47.222Z,7.00
2018-02-23T10:20:24.952Z,7.90
2018-02-23T10:23:07.997Z,8.60
2018-02-23T10:25:49.669Z,7.00
2018-02-23T10:28:23.577Z,6.50
2018-02-23T10:31:02.334Z,6.80
2018-02-23T10:33:36.380Z,5.90
2018-02-23T10:36:14.773Z,7.00
2018-02-23T10:38:54.535Z,8.00
2018-02-23T10:41:38.191Z,8.10
2018-02-23T10:44:21.734Z,8.40
2018-02-23T10:46:55.314Z,8.50
2018-02-23T10:49:37.863Z,8.90
2018-02-23T10:52:11.594Z,7.20
2018-02-23T10:54:50.905Z,8.00
2018-02-23T10:57:28.694Z,8.00
2018-02-23T11:00:16.152Z,9.90
2018-02-23T11:02:58.326Z,8.90
2018-02-23T11:05:34.197Z,8.80
2018-02-23T11:08:17.224Z,8.70
2018-02-23T11:10:54.303Z,7.70
2018-02-23T11:13:27.348Z,7.70
2018-02-23T11:16:08.949Z,8.50
2018-02-23T11:18:47.987Z,8.50
2018-02-23T11:21:26.735Z,7.90
2018-02-23T11:24:07.238Z,8.10
2018-02-23T11:26:51.696Z,8.10
2018-02-23T11:29:25.237Z,6.90
2018-02-23T11:32:04.596Z,6.60
2018-02-23T11:34:43.238Z,7.50
2018-02-23T11:37:22.361Z,7.50
2018-02-23T11:40:02.199Z,8.50
2018-02-23T11:42:44.567Z,8.50
2018-02-23T11:45:18.580Z,8.40
2018-02-23T11:47:57.631Z,7.40
2018-02-23T11:50:31.704Z,6.80
2018-02-23T11:53:05.947Z,7.00
2018-02-23T11:55:44.055Z,8.20
2018-02-23T11:58:19.148Z,8.00
2018-02-23T12:00:58.245Z,8.60
2018-02-23T12:03:40.106Z,8.50
2018-02-23T12:06:15.622Z,8.50
2018-02-23T12:08:49.422Z,8.70
2018-02-23T12:11:29.151Z,6.90
2018-02-23T12:14:09.425Z,6.80
2018-02-23T12:16:43.747Z,7.20
2018-02-23T12:19:25.563Z,7.60
2018-02-23T12:22:08.419Z,7.40
2018-02-23T12:24:49.349Z,7.40
2018-02-23T12:27:30.249Z,8.60
2018-02-23T12:30:09.574Z,6.80
2018-02-23T12:32:49.528Z,7.90
2018-02-23T12:35:23.008Z,8.60
2018-02-23T12:38:00.615Z,9.20
2018-02-23T12:40:39.541Z,9.40
2018-02-23T12:43:20.894Z,9.40
2018-02-23T12:45:56.108Z,8.10
2018-02-23T12:48:29.245Z,8.40
2018-02-23T12:51:08.051Z,8.30
2018-02-23T12:53:49.215Z,7.40
2018-02-23T12:56:30.808Z,7.80
2018-02-23T12:59:09.868Z,8.10
2018-02-23T13:01:48.319Z,8.70
2018-02-23T13:04:31.609Z,8.80
2018-02-23T13:07:12.022Z,8.90
2018-02-23T13:09:46.279Z,8.60
2018-02-23T13:12:26.614Z,8.20
2018-02-23T13:15:10.015Z,8.10
2018-02-23T13:17:51.196Z,7.70
2018-02-23T13:20:36.379Z,7.40
2018-02-23T13:23:11.147Z,6.20
2018-02-23T13:25:55.656Z,6.70
2018-02-23T13:28:54.508Z,7.50
2018-02-23T13:31:38.981Z,7.60
2018-02-23T13:34:21.985Z,7.30
2018-02-23T13:37:00.430Z,7.30
2018-02-23T13:39:42.307Z,6.80
2018-02-23T13:42:17.454Z,6.00
2018-02-23T13:44:58.238Z,6.20
2018-02-23T13:47:36.903Z,6.20
2018-02-23T13:50:15.825Z,6.40
2018-02-23T13:52:56.260Z,6.40
2018-02-23T13:55:34.949Z,6.50
2018-02-23T13:58:09.505Z,6.50
2018-02-23T14:00:48.810Z,6.70
2018-02-23T14:03:23.243Z,6.90
2018-02-23T14:06:11.392Z,6.90
2018-02-23T14:08:58.394Z,6.80
2018-02-23T14:11:32.963Z,6.90
2018-02-23T14:14:14.918Z,6.40
2018-02-23T14:16:52.781Z,6.10
2018-02-23T14:19:36.257Z,6.40
2018-02-23T14:22:21.092Z,6.60
2018-02-23T14:25:02.822Z,6.90
2018-02-23T14:27:36.661Z,6.90
2018-02-23T14:30:22.965Z,7.00
2018-02-23T14:33:04.213Z,7.30
2018-02-23T14:35:42.893Z,7.60
2018-02-23T14:38:29.480Z,7.90
2018-02-23T14:41:14.406Z,7.80
2018-02-23T14:43:55.223Z,8.50
2018-02-23T14:46:35.237Z,8.60
2018-02-23T14:49:25.454Z,8.40
2018-02-23T14:52:05.574Z,7.90
2018-02-23T14:54:45.002Z,7.10
2018-02-23T14:57:24.503Z,7.90
2018-02-23T15:00:08.505Z,8.30
2018-02-23T15:02:49.716Z,8.20
2018-02-23T15:05:24.846Z,7.50
2018-02-23T15:08:09.014Z,7.50
2018-02-23T15:10:56.618Z,8.20
2018-02-23T15:13:32.495Z,8.20
2018-02-23T15:16:13.185Z,7.70
2018-02-23T15:18:48.043Z,7.60
2018-02-23T15:21:21.892Z,6.40
2018-02-23T15:24:05.780Z,5.60
2018-02-23T15:26:50.514Z,5.60
2018-02-23T15:29:27.915Z,5.00
2018-02-23T15:32:15.092Z,4.40
2018-02-23T15:34:54.030Z,4.10
2018-02-23T15:37:37.168Z,3.80
2018-02-23T15:40:12.177Z,3.80
2018-02-23T15:42:47.173Z,3.80
2018-02-23T15:45:30.231Z,3.80
2018-02-23T15:48:15.265Z,3.70
2018-02-23T15:51:14.362Z,3.70
2018-02-23T15:53:50.438Z,3.50
2018-02-23T15:56:24.188Z,3.50
2018-02-23T16:02:02.082Z,3.30
2018-02-23T16:04:39.029Z,3.30
2018-02-23T16:07:15.862Z,3.30
2018-02-23T16:09:58.259Z,3.20
2018-02-23T16:12:41.558Z,3.20
2018-02-23T16:15:17.646Z,3.00
2018-02-23T16:18:02.723Z,3.00
2018-02-23T16:20:47.402Z,2.90
2018-02-23T16:23:28.817Z,2.80
2018-02-23T16:26:10.807Z,2.80
2018-02-23T16:28:52.319Z,2.70
2018-02-23T16:31:33.666Z,2.70
2018-02-23T16:34:08.521Z,2.70
2018-02-23T16:36:48.338Z,2.50
2018-02-23T16:39:29.086Z,2.40
2018-02-23T16:42:13.366Z,2.30
2018-02-23T16:44:57.145Z,2.20
2018-02-23T16:47:31.160Z,2.30
2018-02-23T16:50:11.978Z,2.20
2018-02-23T16:52:52.938Z,2.10
2018-02-23T16:55:30.544Z,2.10
2018-02-23T16:58:04.808Z,2.10
2018-02-23T17:00:47.751Z,2.10
2018-02-23T17:03:29.008Z,2.00
2018-02-23T17:06:08.622Z,2.00
2018-02-23T17:08:48.286Z,2.00
2018-02-23T17:11:31.868Z,1.90
2018-02-23T17:14:09.679Z,1.90
2018-02-23T17:16:43.341Z,1.90
2018-02-23T17:19:23.029Z,1.80
2018-02-23T17:22:01.858Z,1.80
2018-02-23T17:24:35.499Z,1.70
2018-02-23T17:27:10.282Z,1.70
2018-02-23T17:29:49.799Z,1.70
2018-02-23T17:32:29.118Z,1.60
2018-02-23T17:35:08.469Z,1.60
2018-02-23T17:37:43.822Z,1.60
2018-02-23T17:40:17.593Z,1.50
2018-02-23T17:42:54.381Z,1.50
2018-02-23T17:45:27.651Z,1.50
2018-02-23T17:48:06.092Z,1.50
2018-02-23T17:50:45.792Z,1.50
2018-02-23T17:53:26.931Z,1.40
2018-02-23T17:56:00.697Z,1.40
2018-02-23T17:58:42.948Z,1.40
2018-02-23T18:01:23.502Z,1.40
2018-02-23T18:04:04.213Z,1.30
2018-02-23T18:06:38.219Z,1.30
2018-02-23T18:09:16.104Z,1.30
2018-02-23T18:11:54.323Z,1.30
2018-02-23T18:14:36.129Z,1.20
2018-02-23T18:17:12.133Z,1.20
2018-02-23T18:19:48.295Z,1.20
2018-02-23T18:22:23.983Z,1.20
2018-02-23T18:25:01.522Z,1.20
2018-02-23T18:27:40.020Z,1.10
2018-02-23T18:30:20.054Z,1.10
2018-02-23T18:32:53.862Z,1.10
2018-02-23T18:35:27.707Z,1.00
2018-02-23T18:38:06.946Z,1.00
2018-02-23T18:40:45.670Z,0.90
2018-02-23T18:43:24.364Z,0.90
2018-02-23T18:46:05.726Z,0.90
2018-02-23T18:48:40.108Z,0.90
2018-02-23T18:51:19.157Z,0.90
2018-02-23T18:53:52.917Z,0.90
2018-02-23T18:56:34.497Z,0.80
2018-02-23T18:59:14.192Z,0.80
2018-02-23T19:01:51.957Z,0.70
2018-02-23T19:04:30.325Z,0.70
2018-02-23T19:07:07.399Z,0.70
2018-02-23T19:09:45.327Z,0.70
2018-02-23T19:12:18.934Z,0.70
2018-02-23T19:14:53.956Z,0.60
2018-02-23T19:17:32.131Z,0.60
2018-02-23T19:20:10.720Z,0.60
2018-02-23T19:22:43.822Z,0.60
2018-02-23T19:25:15.865Z,0.50
2018-02-23T19:27:54.445Z,0.50
2018-02-23T19:30:33.736Z,0.50
2018-02-23T19:33:07.368Z,0.50
2018-02-23T19:35:44.743Z,0.50
2018-02-23T19:38:24.266Z,0.40
2018-02-23T19:40:57.672Z,0.40
2018-02-23T19:43:31.370Z,0.40
2018-02-23T19:46:04.548Z,0.40
2018-02-23T19:48:38.868Z,0.40
2018-02-23T19:51:12.872Z,0.40
2018-02-23T19:53:51.582Z,0.30
2018-02-23T19:56:30.465Z,0.30
2018-02-23T19:59:09.894Z,0.30
2018-02-23T20:01:42.152Z,0.20
2018-02-23T20:04:20.748Z,0.20
2018-02-23T20:06:57.953Z,0.20
2018-02-23T20:09:35.259Z,0.20
2018-02-23T20:12:15.047Z,0.10
2018-02-23T20:14:53.438Z,0.10
2018-02-23T20:17:25.919Z,0.10
2018-02-23T20:20:03.640Z,0.10
2018-02-23T20:22:42.459Z,0.10
2018-02-23T20:25:20.517Z,0.00
2018-02-23T20:27:58.863Z,0.00
2018-02-23T20:30:32.067Z,0.00
2018-02-23T20:33:09.803Z,0.00
2018-02-23T20:35:51.981Z,0.00
2018-02-23T20:38:31.894Z,-0.10
2018-02-23T20:41:10.487Z,-0.10
2018-02-23T20:43:44.284Z,-0.10
2018-02-23T20:46:16.810Z,-0.10
2018-02-23T20:48:54.743Z,-0.20
2018-02-23T20:51:33.707Z,-0.20
2018-02-23T20:54:12.968Z,-0.20
2018-02-23T20:56:52.995Z,-0.30
2018-02-23T20:59:26.644Z,-0.30
2018-02-23T21:02:02.793Z,-0.30
2018-02-23T21:04:43.401Z,-0.40
2018-02-23T21:07:22.529Z,-0.30
2018-02-23T21:09:57.602Z,-0.40
2018-02-23T21:12:40.248Z,-0.40
2018-02-23T21:15:18.592Z,-0.40
2018-02-23T21:17:57.438Z,-0.40
2018-02-23T21:20:36.639Z,-0.50
2018-02-23T21:23:17.455Z,-0.50
2018-02-23T21:25:55.420Z,-0.50
2018-02-23T21:28:33.646Z,-0.50
2018-02-23T21:31:10.579Z,-0.60
2018-02-23T21:33:49.060Z,-0.60
2018-02-23T21:36:32.614Z,-0.60
2018-02-23T21:39:13.074Z,-0.70
2018-02-23T21:41:56.890Z,-0.70
2018-02-23T21:44:40.244Z,-0.70
2018-02-23T21:47:14.325Z,-0.80
2018-02-23T21:49:54.608Z,-0.80
2018-02-23T21:52:33.350Z,-0.80
2018-02-23T21:55:11.297Z,-0.80
2018-02-23T21:57:50.974Z,-0.90
2018-02-23T22:00:32.387Z,-0.90
2018-02-23T22:03:11.541Z,-0.90
2018-02-23T22:05:51.904Z,-1.00
2018-02-23T22:08:30.455Z,-1.00
2018-02-23T22:11:09.040Z,-1.10
2018-02-23T22:13:49.625Z,-1.00
2018-02-23T22:16:22.188Z,-1.00
2018-02-23T22:19:00.246Z,-1.10
2018-02-23T22:21:39.181Z,-1.10
2018-02-23T22:24:17.235Z,-1.10
2018-02-23T22:26:54.571Z,-1.10
2018-02-23T22:29:35.388Z,-1.10
2018-02-23T22:32:11.285Z,-1.20
2018-02-23T22:34:49.176Z,-1.20
2018-02-23T22:37:22.686Z,-1.20
2018-02-23T22:39:59.183Z,-1.20
2018-02-23T22:42:38.194Z,-1.30
2018-02-23T22:45:16.360Z,-1.30
2018-02-23T22:47:52.524Z,-1.40
2018-02-23T22:50:25.220Z,-1.30
2018-02-23T22:53:02.536Z,-1.40
2018-02-23T22:55:42.298Z,-1.40
2018-02-23T22:58:19.201Z,-1.40
2018-02-23T23:00:57.709Z,-1.40
2018-02-23T23:03:36.694Z,-1.40
2018-02-23T23:06:14.357Z,-1.50
2018-02-23T23:08:51.714Z,-1.40
2018-02-23T23:11:32.146Z,-1.50
2018-02-23T23:14:09.124Z,-1.50
2018-02-23T23:16:41.264Z,-1.50
2018-02-23T23:19:19.474Z,-1.50
2018-02-23T23:21:57.129Z,-1.50
2018-02-23T23:24:34.509Z,-1.50
2018-02-23T23:27:12.450Z,-1.50
2018-02-23T23:29:50.243Z,-1.60
2018-02-23T23:32:25.080Z,-1.60
2018-02-23T23:35:04.595Z,-1.60
2018-02-23T23:37:41.711Z,-1.60
2018-02-23T23:40:20.890Z,-1.60
2018-02-23T23:43:00.829Z,-1.60
2018-02-23T23:45:39.348Z,-1.70
2018-02-23T23:48:17.181Z,-1.70
2018-02-23T23:50:56.670Z,-1.70
2018-02-23T23:53:34.476Z,-1.70
2018-02-23T23:56:11.535Z,-1.80
2018-02-23T23:58:48.764Z,-1.80
